createdAt,value
2018-06-23T00:00:59.147Z,4.60
2018-06-23T00:01:59.312Z,4.50
2018-06-23T00:02:59.476Z,4.40
2018-06-23T00:03:59.637Z,2.30
2018-06-23T00:06:31.919Z,4.20
2018-06-23T00:07:32.086Z,3.40
2018-06-23T00:08:32.254Z,5.70
2018-06-23T00:09:32.407Z,4.30
2018-06-23T00:10:32.569Z,6.80
2018-06-23T00:11:32.737Z,3.30
2018-06-23T00:12:32.907Z,4.20
2018-06-23T00:13:33.068Z,3.10
2018-06-23T00:14:33.237Z,3.40
2018-06-23T00:15:33.397Z,3.80
2018-06-23T00:16:33.561Z,4.70
2018-06-23T00:17:33.725Z,5.20
2018-06-23T00:18:33.895Z,6.00
2018-06-23T00:19:34.057Z,4.40
2018-06-23T00:20:34.223Z,2.80
2018-06-23T00:23:07.776Z,4.10
2018-06-23T00:24:07.938Z,3.90
2018-06-23T00:25:08.116Z,3.90
2018-06-23T00:26:08.270Z,3.20
2018-06-23T00:27:08.427Z,6.00
2018-06-23T00:28:08.591Z,7.40
2018-06-23T00:29:08.758Z,4.80
2018-06-23T00:30:08.920Z,4.40
2018-06-23T00:31:09.089Z,3.70
2018-06-23T00:32:09.252Z,3.90
2018-06-23T00:33:09.419Z,4.90
2018-06-23T00:34:09.581Z,3.30
2018-06-23T00:35:09.750Z,3.40
2018-06-23T00:36:09.934Z,4.80
2018-06-23T00:37:10.109Z,4.70
2018-06-23T00:39:42.359Z,5.20
2018-06-23T00:40:42.521Z,5.50
2018-06-23T00:41:42.686Z,3.80
2018-06-23T00:42:42.854Z,4.60
2018-06-23T00:43:43.021Z,4.00
2018-06-23T00:44:43.187Z,4.50
2018-06-23T00:45:43.353Z,3.30
2018-06-23T00:46:43.518Z,4.70
2018-06-23T00:47:43.681Z,4.30
2018-06-23T00:48:45.383Z,4.90
2018-06-23T00:51:16.435Z,4.60
2018-06-23T00:52:16.610Z,2.80
2018-06-23T00:53:16.772Z,5.20
2018-06-23T00:54:16.938Z,4.90
2018-06-23T00:55:17.104Z,3.90
2018-06-23T00:56:17.264Z,3.50
2018-06-23T00:57:17.431Z,5.60
2018-06-23T00:58:17.594Z,4.20
2018-06-23T00:59:17.762Z,4.50
2018-06-23T01:00:17.925Z,3.80
2018-06-23T01:01:18.092Z,3.80
2018-06-23T01:02:18.261Z,4.00
2018-06-23T01:03:18.419Z,4.90
2018-06-23T01:04:18.589Z,4.30
2018-06-23T01:05:18.750Z,4.40
2018-06-23T01:07:51.023Z,3.30
2018-06-23T01:08:51.189Z,4.40
2018-06-23T01:09:51.343Z,4.80
2018-06-23T01:10:51.503Z,4.30
2018-06-23T01:11:51.665Z,3.90
2018-06-23T01:12:51.828Z,2.90
2018-06-23T01:13:52.549Z,5.30
2018-06-23T01:14:52.218Z,5.00
2018-06-23T01:15:52.376Z,3.50
2018-06-23T01:16:52.536Z,4.30
2018-06-23T01:17:52.707Z,4.20
2018-06-23T01:18:52.868Z,6.00
2018-06-23T01:19:53.062Z,4.10
2018-06-23T01:20:53.236Z,4.50
2018-06-23T01:21:53.403Z,4.60
2018-06-23T01:24:35.675Z,4.10
2018-06-23T01:25:35.837Z,3.00
2018-06-23T01:26:36.001Z,4.50
2018-06-23T01:27:36.167Z,5.90
2018-06-23T01:28:36.336Z,4.90
2018-06-23T01:29:36.491Z,5.70
2018-06-23T01:30:36.665Z,4.10
2018-06-23T01:31:36.834Z,4.70
2018-06-23T01:32:37.002Z,3.30
2018-06-23T01:33:37.158Z,4.90
2018-06-23T01:34:37.338Z,3.50
2018-06-23T01:35:37.501Z,4.30
2018-06-23T01:36:37.658Z,3.80
2018-06-23T01:37:37.824Z,4.20
2018-06-23T01:38:37.982Z,3.40
2018-06-23T01:41:20.250Z,3.40
2018-06-23T01:42:20.419Z,3.10
2018-06-23T01:43:20.589Z,3.50
2018-06-23T01:44:20.755Z,4.10
2018-06-23T01:45:20.917Z,3.90
2018-06-23T01:46:21.081Z,4.90
2018-06-23T01:47:21.251Z,5.00
2018-06-23T01:48:21.430Z,4.90
2018-06-23T01:49:21.606Z,3.60
2018-06-23T01:50:21.772Z,4.30
2018-06-23T01:51:21.928Z,4.50
2018-06-23T01:52:22.114Z,4.80
2018-06-23T01:53:22.275Z,4.10
2018-06-23T01:54:22.439Z,4.50
2018-06-23T01:55:22.605Z,4.20
2018-06-23T01:58:04.896Z,5.70
2018-06-23T01:59:05.055Z,4.40
2018-06-23T02:00:05.223Z,2.70
2018-06-23T02:01:05.387Z,3.20
2018-06-23T02:02:05.549Z,3.90
2018-06-23T02:03:05.713Z,4.60
2018-06-23T02:04:05.882Z,6.00
2018-06-23T02:05:06.041Z,4.40
2018-06-23T02:06:06.204Z,3.50
2018-06-23T02:07:06.368Z,4.70
2018-06-23T02:08:06.550Z,5.70
2018-06-23T02:09:06.746Z,3.20
2018-06-23T02:10:06.900Z,4.10
2018-06-23T02:11:07.059Z,4.20
2018-06-23T02:12:07.229Z,4.40
2018-06-23T02:14:39.507Z,5.10
2018-06-23T02:15:39.678Z,5.10
2018-06-23T02:16:39.837Z,5.90
2018-06-23T02:17:40.002Z,5.50
2018-06-23T02:18:40.166Z,4.00
2018-06-23T02:19:40.326Z,6.00
2018-06-23T02:20:40.523Z,3.90
2018-06-23T02:21:40.683Z,4.30
2018-06-23T02:22:40.851Z,4.50
2018-06-23T02:23:41.014Z,4.30
2018-06-23T02:24:41.178Z,3.60
2018-06-23T02:25:41.341Z,6.80
2018-06-23T02:26:41.504Z,4.40
2018-06-23T02:27:41.667Z,5.10
2018-06-23T02:28:41.831Z,3.30
2018-06-23T02:31:24.092Z,5.30
2018-06-23T02:32:24.252Z,5.00
2018-06-23T02:33:24.419Z,4.50
2018-06-23T02:34:24.581Z,5.70
2018-06-23T02:35:24.744Z,6.00
2018-06-23T02:36:24.907Z,4.40
2018-06-23T02:37:25.071Z,4.40
2018-06-23T02:38:25.238Z,4.50
2018-06-23T02:39:25.396Z,6.00
2018-06-23T02:40:25.568Z,4.70
2018-06-23T02:42:57.857Z,4.30
2018-06-23T02:43:58.016Z,6.30
2018-06-23T02:44:58.178Z,6.40
2018-06-23T02:45:58.340Z,4.90
2018-06-23T02:46:58.508Z,5.20
2018-06-23T02:47:58.668Z,3.70
2018-06-23T02:48:58.832Z,7.00
2018-06-23T02:49:58.996Z,6.30
2018-06-23T02:50:59.160Z,4.60
2018-06-23T02:51:59.324Z,5.10
2018-06-23T02:52:59.488Z,7.10
2018-06-23T02:53:59.650Z,5.30
2018-06-23T02:54:59.811Z,4.20
2018-06-23T02:55:59.973Z,4.10
2018-06-23T02:57:00.128Z,5.90
2018-06-23T02:59:42.956Z,3.80
2018-06-23T03:00:42.749Z,5.40
2018-06-23T03:01:42.927Z,5.50
2018-06-23T03:02:43.081Z,3.80
2018-06-23T03:03:43.244Z,5.10
2018-06-23T03:04:43.410Z,5.80
2018-06-23T03:05:43.579Z,6.20
2018-06-23T03:06:45.416Z,5.30
2018-06-23T03:07:44.928Z,4.60
2018-06-23T03:08:44.087Z,4.70
2018-06-23T03:09:44.252Z,4.60
2018-06-23T03:10:44.416Z,5.10
2018-06-23T03:11:44.568Z,4.90
2018-06-23T03:12:44.742Z,4.80
2018-06-23T03:13:44.902Z,5.30
2018-06-23T03:16:17.456Z,3.40
2018-06-23T03:17:17.627Z,4.80
2018-06-23T03:18:17.785Z,5.40
2018-06-23T03:19:17.949Z,4.20
2018-06-23T03:20:18.112Z,4.60
2018-06-23T03:21:18.279Z,6.10
2018-06-23T03:22:18.428Z,5.90
2018-06-23T03:23:18.600Z,6.30
2018-06-23T03:24:18.761Z,6.60
2018-06-23T03:25:18.925Z,4.40
2018-06-23T03:26:19.074Z,4.70
2018-06-23T03:27:19.239Z,6.50
2018-06-23T03:28:19.394Z,4.10
2018-06-23T03:29:19.563Z,5.90
2018-06-23T03:30:19.726Z,5.90
2018-06-23T03:33:02.304Z,6.60
2018-06-23T03:34:02.454Z,6.60
2018-06-23T03:35:02.615Z,6.50
2018-06-23T03:36:02.777Z,6.20
2018-06-23T03:37:02.942Z,4.70
2018-06-23T03:38:03.101Z,6.80
2018-06-23T03:39:03.263Z,6.10
2018-06-23T03:40:03.424Z,5.10
2018-06-23T03:41:03.586Z,5.40
2018-06-23T03:42:03.760Z,5.40
2018-06-23T03:44:36.387Z,5.80
2018-06-23T03:45:36.474Z,6.80
2018-06-23T03:46:36.635Z,3.80
2018-06-23T03:47:36.785Z,4.10
2018-06-23T03:48:36.962Z,5.30
2018-06-23T03:49:37.127Z,5.90
2018-06-23T03:50:37.287Z,5.70
2018-06-23T03:51:37.446Z,4.60
2018-06-23T03:52:37.601Z,4.40
2018-06-23T03:53:37.767Z,4.30
2018-06-23T03:56:10.325Z,5.30
2018-06-23T03:57:10.496Z,4.80
2018-06-23T03:58:10.660Z,6.70
2018-06-23T03:59:10.819Z,7.90
2018-06-23T04:00:10.989Z,6.50
2018-06-23T04:01:11.146Z,5.70
2018-06-23T04:02:11.313Z,5.10
2018-06-23T04:03:11.470Z,7.00
2018-06-23T04:04:11.640Z,7.30
2018-06-23T04:05:11.792Z,6.70
2018-06-23T04:07:54.356Z,4.80
2018-06-23T04:08:54.518Z,4.90
2018-06-23T04:09:54.684Z,6.40
2018-06-23T04:10:54.849Z,6.00
2018-06-23T04:11:55.009Z,5.10
2018-06-23T04:12:55.186Z,5.90
2018-06-23T04:13:55.349Z,4.90
2018-06-23T04:14:55.513Z,3.80
2018-06-23T04:15:55.674Z,6.00
2018-06-23T04:16:55.843Z,6.70
2018-06-23T04:19:28.137Z,4.70
2018-06-23T04:20:28.305Z,5.20
2018-06-23T04:21:28.469Z,7.10
2018-06-23T04:22:28.639Z,6.80
2018-06-23T04:23:28.802Z,5.50
2018-06-23T04:24:28.959Z,4.70
2018-06-23T04:25:29.133Z,7.40
2018-06-23T04:26:29.312Z,4.40
2018-06-23T04:27:29.452Z,6.10
2018-06-23T04:28:31.165Z,7.40
2018-06-23T04:31:11.889Z,6.70
2018-06-23T04:32:12.060Z,5.90
2018-06-23T04:33:12.217Z,6.10
2018-06-23T04:34:12.383Z,7.60
2018-06-23T04:35:12.546Z,7.10
2018-06-23T04:36:12.726Z,5.50
2018-06-23T04:37:12.877Z,5.10
2018-06-23T04:38:13.038Z,6.50
2018-06-23T04:39:13.203Z,6.50
2018-06-23T04:40:13.370Z,5.40
2018-06-23T04:41:13.532Z,7.10
2018-06-23T04:42:13.695Z,7.90
2018-06-23T04:43:13.858Z,5.10
2018-06-23T04:44:14.020Z,7.30
2018-06-23T04:45:14.197Z,3.60
2018-06-23T04:47:56.473Z,6.40
2018-06-23T04:48:56.643Z,16.70
2018-06-23T04:49:56.801Z,12.20
2018-06-23T04:50:56.990Z,6.10
2018-06-23T04:51:57.148Z,6.70
2018-06-23T04:52:57.321Z,6.50
2018-06-23T04:53:57.482Z,7.10
2018-06-23T04:54:57.660Z,5.70
2018-06-23T04:55:57.834Z,6.70
2018-06-23T04:56:57.998Z,4.70
2018-06-23T04:57:58.169Z,5.30
2018-06-23T04:58:58.329Z,5.80
2018-06-23T04:59:58.502Z,7.20
2018-06-23T05:00:58.657Z,7.90
2018-06-23T05:01:58.829Z,7.50
2018-06-23T05:04:41.099Z,6.60
2018-06-23T05:05:41.263Z,5.40
2018-06-23T05:06:41.436Z,6.70
2018-06-23T05:07:41.593Z,6.10
2018-06-23T05:08:41.745Z,6.60
2018-06-23T05:09:41.915Z,6.00
2018-06-23T05:10:42.107Z,7.00
2018-06-23T05:11:42.267Z,5.70
2018-06-23T05:12:42.432Z,6.30
2018-06-23T05:13:42.599Z,7.50
2018-06-23T05:16:15.164Z,4.90
2018-06-23T05:17:15.895Z,5.20
2018-06-23T05:18:22.600Z,7.90
2018-06-23T05:19:15.631Z,7.10
2018-06-23T05:20:15.824Z,4.70
2018-06-23T05:21:15.959Z,5.40
2018-06-23T05:22:16.124Z,7.30
2018-06-23T05:23:16.282Z,6.60
2018-06-23T05:24:16.445Z,5.40
2018-06-23T05:25:16.608Z,6.50
2018-06-23T05:26:23.945Z,5.80
2018-06-23T05:27:16.974Z,6.30
2018-06-23T05:28:17.149Z,5.60
2018-06-23T05:29:25.106Z,7.40
2018-06-23T05:30:17.514Z,7.20
2018-06-23T05:31:17.675Z,6.10
2018-06-23T05:32:17.839Z,15.60
2018-06-23T05:33:18.955Z,9.90
2018-06-23T05:34:18.156Z,6.70
2018-06-23T05:35:18.319Z,8.80
2018-06-23T05:36:18.480Z,5.10
2018-06-23T05:37:18.648Z,8.70
2018-06-23T05:38:18.800Z,6.20
2018-06-23T05:39:18.963Z,6.70
2018-06-23T05:40:19.158Z,8.30
2018-06-23T05:41:19.335Z,6.20
2018-06-23T05:42:19.636Z,4.50
2018-06-23T05:43:19.677Z,5.90
2018-06-23T05:44:28.577Z,7.00
2018-06-23T05:45:20.147Z,6.50
2018-06-23T05:46:20.355Z,6.90
2018-06-23T05:47:20.295Z,6.80
2018-06-23T05:48:20.451Z,9.50
2018-06-23T05:49:20.618Z,6.00
2018-06-23T05:50:20.788Z,7.00
2018-06-23T05:51:22.548Z,8.30
2018-06-23T05:52:21.147Z,7.90
2018-06-23T05:53:21.320Z,4.70
2018-06-23T05:54:21.528Z,7.20
2018-06-23T05:55:21.923Z,6.00
2018-06-23T05:56:21.843Z,7.50
2018-06-23T05:57:22.004Z,5.80
2018-06-23T05:58:22.378Z,4.30
2018-06-23T06:02:04.927Z,8.60
2018-06-23T06:03:05.096Z,7.20
2018-06-23T06:04:05.250Z,6.60
2018-06-23T06:05:05.433Z,7.40
2018-06-23T06:06:05.577Z,7.70
2018-06-23T06:07:05.803Z,7.60
2018-06-23T06:08:05.902Z,8.70
2018-06-23T06:09:06.073Z,9.00
2018-06-23T06:10:06.239Z,8.30
2018-06-23T06:11:06.400Z,8.40
2018-06-23T06:12:06.568Z,9.10
2018-06-23T06:13:06.742Z,6.70
2018-06-23T06:14:06.947Z,7.30
2018-06-23T06:15:07.113Z,6.60
2018-06-23T06:16:07.278Z,6.40
2018-06-23T06:18:49.849Z,7.80
2018-06-23T06:19:50.204Z,10.80
2018-06-23T06:20:50.163Z,6.70
2018-06-23T06:21:50.351Z,10.00
2018-06-23T06:22:50.487Z,7.70
2018-06-23T06:23:50.669Z,7.50
2018-06-23T06:24:50.816Z,9.20
2018-06-23T06:25:50.982Z,11.80
2018-06-23T06:26:58.318Z,6.60
2018-06-23T06:27:59.016Z,8.50
2018-06-23T06:28:51.544Z,7.10
2018-06-23T06:29:51.712Z,7.70
2018-06-23T06:30:51.881Z,5.70
2018-06-23T06:31:52.042Z,9.00
2018-06-23T06:32:52.213Z,8.70
2018-06-23T06:33:52.379Z,10.40
2018-06-23T06:34:52.533Z,11.20
2018-06-23T06:35:52.696Z,9.10
2018-06-23T06:36:52.859Z,6.90
2018-06-23T06:37:53.023Z,8.80
2018-06-23T06:38:53.194Z,7.20
2018-06-23T06:39:53.361Z,7.50
2018-06-23T06:40:53.533Z,7.30
2018-06-23T06:41:53.701Z,9.10
2018-06-23T06:44:35.980Z,21.20
2018-06-23T06:45:36.135Z,10.70
2018-06-23T06:46:36.303Z,7.40
2018-06-23T06:47:36.464Z,8.30
2018-06-23T06:48:36.626Z,7.80
2018-06-23T06:49:36.779Z,7.30
2018-06-23T06:50:36.955Z,6.20
2018-06-23T06:51:37.122Z,6.20
2018-06-23T06:52:38.011Z,6.70
2018-06-23T06:53:37.472Z,6.80
2018-06-23T06:54:37.655Z,9.00
2018-06-23T06:55:37.839Z,6.70
2018-06-23T06:56:38.017Z,7.80
2018-06-23T06:57:38.179Z,8.20
2018-06-23T06:58:38.347Z,7.20
2018-06-23T07:01:20.912Z,6.30
2018-06-23T07:02:21.064Z,7.00
2018-06-23T07:03:21.253Z,6.20
2018-06-23T07:04:21.415Z,7.50
2018-06-23T07:05:21.590Z,6.70
2018-06-23T07:06:22.643Z,9.10
2018-06-23T07:07:21.957Z,6.10
2018-06-23T07:08:22.125Z,7.20
2018-06-23T07:09:22.285Z,7.20
2018-06-23T07:10:22.462Z,5.60
2018-06-23T07:11:22.640Z,6.10
2018-06-23T07:12:22.805Z,4.90
2018-06-23T07:13:22.969Z,5.70
2018-06-23T07:14:23.135Z,8.40
2018-06-23T07:15:23.302Z,6.60
2018-06-23T07:18:05.870Z,7.60
2018-06-23T07:19:06.073Z,5.20
2018-06-23T07:20:06.227Z,8.00
2018-06-23T07:21:06.418Z,6.40
2018-06-23T07:22:06.600Z,6.30
2018-06-23T07:23:06.764Z,7.20
2018-06-23T07:24:06.987Z,10.50
2018-06-23T07:25:07.098Z,13.30
2018-06-23T07:26:07.264Z,19.40
2018-06-23T07:27:14.607Z,14.00
2018-06-23T07:28:07.635Z,16.30
2018-06-23T07:29:07.798Z,20.20
2018-06-23T07:30:15.940Z,38.50
2018-06-23T07:31:08.081Z,30.20
2018-06-23T07:32:08.245Z,20.30
2018-06-23T07:33:08.410Z,24.50
2018-06-23T07:34:08.587Z,12.90
2018-06-23T07:35:08.850Z,9.90
2018-06-23T07:36:08.955Z,15.00
2018-06-23T07:37:09.118Z,25.20
2018-06-23T07:38:09.286Z,27.10
2018-06-23T07:39:09.454Z,16.50
2018-06-23T07:40:09.630Z,9.40
2018-06-23T07:41:09.781Z,13.60
2018-06-23T07:42:09.961Z,12.50
2018-06-23T07:43:10.124Z,7.90
2018-06-23T07:44:10.329Z,6.10
2018-06-23T07:46:42.795Z,7.50
2018-06-23T07:47:42.788Z,9.30
2018-06-23T07:48:42.955Z,8.50
2018-06-23T07:49:43.122Z,8.30
2018-06-23T07:50:43.288Z,9.00
2018-06-23T07:51:43.474Z,7.00
2018-06-23T07:52:43.624Z,6.90
2018-06-23T07:53:43.800Z,6.20
2018-06-23T07:54:43.951Z,7.10
2018-06-23T07:55:45.641Z,5.60
2018-06-23T07:58:16.740Z,6.70
2018-06-23T07:59:16.905Z,5.40
2018-06-23T08:00:17.073Z,6.40
2018-06-23T08:01:24.692Z,5.80
2018-06-23T08:02:17.368Z,6.60
2018-06-23T08:03:17.551Z,5.70
2018-06-23T08:04:17.716Z,8.70
2018-06-23T08:05:17.881Z,8.00
2018-06-23T08:06:18.055Z,6.90
2018-06-23T08:07:18.217Z,7.50
2018-06-23T08:08:18.381Z,9.90
2018-06-23T08:09:18.549Z,8.20
2018-06-23T08:10:18.714Z,7.00
2018-06-23T08:11:19.477Z,5.60
2018-06-23T08:12:19.038Z,7.50
2018-06-23T08:13:19.218Z,12.00
2018-06-23T08:14:19.436Z,11.90
2018-06-23T08:15:19.596Z,13.30
2018-06-23T08:18:02.183Z,18.10
2018-06-23T08:19:02.335Z,10.40
2018-06-23T08:20:02.514Z,5.60
2018-06-23T08:21:02.690Z,5.80
2018-06-23T08:22:02.864Z,10.40
2018-06-23T08:23:03.027Z,8.10
2018-06-23T08:24:03.192Z,11.30
2018-06-23T08:25:03.432Z,11.80
2018-06-23T08:26:03.522Z,8.40
2018-06-23T08:27:03.688Z,10.80
2018-06-23T08:29:36.286Z,8.80
2018-06-23T08:30:36.462Z,10.00
2018-06-23T08:31:36.617Z,6.90
2018-06-23T08:32:36.799Z,7.90
2018-06-23T08:33:36.979Z,8.20
2018-06-23T08:34:37.120Z,6.60
2018-06-23T08:35:37.330Z,7.40
2018-06-23T08:36:37.478Z,8.20
2018-06-23T08:37:37.696Z,7.60
2018-06-23T08:38:37.805Z,5.70
2018-06-23T08:41:10.359Z,6.40
2018-06-23T08:42:10.547Z,7.90
2018-06-23T08:43:10.710Z,8.30
2018-06-23T08:44:10.876Z,6.40
2018-06-23T08:45:11.038Z,6.00
2018-06-23T08:46:11.204Z,7.80
2018-06-23T08:47:11.368Z,7.10
2018-06-23T08:48:11.591Z,11.50
2018-06-23T08:49:11.735Z,10.60
2018-06-23T08:50:11.865Z,6.60
2018-06-23T08:51:12.034Z,7.20
2018-06-23T08:52:12.201Z,9.20
2018-06-23T08:53:12.436Z,9.70
2018-06-23T08:54:12.498Z,8.90
2018-06-23T08:55:12.722Z,10.10
2018-06-23T08:57:55.249Z,13.70
2018-06-23T08:58:55.404Z,19.10
2018-06-23T08:59:55.569Z,7.80
2018-06-23T09:00:55.732Z,8.70
2018-06-23T09:01:55.955Z,12.30
2018-06-23T09:02:56.153Z,10.40
2018-06-23T09:03:56.321Z,11.70
2018-06-23T09:04:56.487Z,9.30
2018-06-23T09:05:56.648Z,9.30
2018-06-23T09:06:56.819Z,11.80
2018-06-23T09:07:56.986Z,10.90
2018-06-23T09:08:57.146Z,10.10
2018-06-23T09:09:57.314Z,12.90
2018-06-23T09:10:57.479Z,14.80
2018-06-23T09:11:57.640Z,11.00
2018-06-23T09:14:39.922Z,13.40
2018-06-23T09:15:40.090Z,7.30
2018-06-23T09:16:40.969Z,5.60
2018-06-23T09:17:40.357Z,7.00
2018-06-23T09:18:40.521Z,9.70
2018-06-23T09:19:40.774Z,7.10
2018-06-23T09:20:40.849Z,7.70
2018-06-23T09:21:41.015Z,9.30
2018-06-23T09:22:41.181Z,11.90
2018-06-23T09:23:41.344Z,10.00
2018-06-23T09:24:41.502Z,7.90
2018-06-23T09:25:41.669Z,7.80
2018-06-23T09:26:41.857Z,9.30
2018-06-23T09:27:42.021Z,7.90
2018-06-23T09:28:42.195Z,6.60
2018-06-23T09:29:51.407Z,7.60
2018-06-23T09:30:43.570Z,7.60
2018-06-23T09:31:42.732Z,9.40
2018-06-23T09:32:44.449Z,9.10
2018-06-23T09:33:43.104Z,6.10
2018-06-23T09:34:43.261Z,8.60
2018-06-23T09:35:43.528Z,16.20
2018-06-23T09:36:43.592Z,11.70
2018-06-23T09:37:43.872Z,6.80
2018-06-23T09:38:43.926Z,11.20
2018-06-23T09:39:44.087Z,9.50
2018-06-23T09:42:26.411Z,6.50
2018-06-23T09:43:26.570Z,6.10
2018-06-23T09:44:26.754Z,5.80
2018-06-23T09:45:26.925Z,8.10
2018-06-23T09:46:30.879Z,6.30
2018-06-23T09:47:27.361Z,6.20
2018-06-23T09:48:27.410Z,5.00
2018-06-23T09:49:27.553Z,6.70
2018-06-23T09:50:27.721Z,8.10
2018-06-23T09:51:31.299Z,7.40
2018-06-23T09:54:10.387Z,8.40
2018-06-23T09:55:10.554Z,9.30
2018-06-23T09:56:18.269Z,8.90
2018-06-23T09:57:10.934Z,7.40
2018-06-23T09:58:11.098Z,6.10
2018-06-23T09:59:11.258Z,6.60
2018-06-23T10:00:11.427Z,7.00
2018-06-23T10:01:11.624Z,6.20
2018-06-23T10:02:11.760Z,7.50
2018-06-23T10:03:11.981Z,8.50
2018-06-23T10:04:12.090Z,6.10
2018-06-23T10:05:12.255Z,8.70
2018-06-23T10:06:12.421Z,6.10
2018-06-23T10:07:12.640Z,11.00
2018-06-23T10:08:12.752Z,7.40
2018-06-23T10:09:12.916Z,11.30
2018-06-23T10:10:13.087Z,8.10
2018-06-23T10:12:55.392Z,6.90
2018-06-23T10:13:55.556Z,11.80
2018-06-23T10:14:55.720Z,10.40
2018-06-23T10:15:55.905Z,10.10
2018-06-23T10:16:56.061Z,8.10
2018-06-23T10:17:56.246Z,7.20
2018-06-23T10:18:56.416Z,7.60
2018-06-23T10:19:56.594Z,6.80
2018-06-23T10:20:56.763Z,8.80
2018-06-23T10:21:56.935Z,7.70
2018-06-23T10:24:39.603Z,13.10
2018-06-23T10:25:39.709Z,13.40
2018-06-23T10:26:39.842Z,7.30
2018-06-23T10:27:47.472Z,9.20
2018-06-23T10:28:41.741Z,7.60
2018-06-23T10:29:40.269Z,8.70
2018-06-23T10:30:42.340Z,12.10
2018-06-23T10:31:40.658Z,13.20
2018-06-23T10:32:41.757Z,10.00
2018-06-23T10:33:40.911Z,8.90
2018-06-23T10:34:41.087Z,5.70
2018-06-23T10:35:41.271Z,6.70
2018-06-23T10:36:41.416Z,9.60
2018-06-23T10:37:41.585Z,8.60
2018-06-23T10:40:23.908Z,9.90
2018-06-23T10:41:24.106Z,13.40
2018-06-23T10:42:24.221Z,8.90
2018-06-23T10:43:24.384Z,7.70
2018-06-23T10:44:24.551Z,9.90
2018-06-23T10:45:24.721Z,12.20
2018-06-23T10:46:24.913Z,8.40
2018-06-23T10:47:25.049Z,7.60
2018-06-23T10:48:25.229Z,5.10
2018-06-23T10:49:25.428Z,10.70
2018-06-23T10:50:25.595Z,8.00
2018-06-23T10:51:25.784Z,7.70
2018-06-23T10:52:25.949Z,4.80
2018-06-23T10:53:26.129Z,10.10
2018-06-23T10:54:26.285Z,9.00
2018-06-23T10:55:34.149Z,6.80
2018-06-23T10:56:26.568Z,5.10
2018-06-23T10:57:26.741Z,6.10
2018-06-23T10:58:26.908Z,7.30
2018-06-23T10:59:36.056Z,5.50
2018-06-23T11:00:27.218Z,4.10
2018-06-23T11:01:27.372Z,3.80
2018-06-23T11:02:27.538Z,6.20
2018-06-23T11:03:35.666Z,5.80
2018-06-23T11:04:27.886Z,6.20
2018-06-23T11:05:29.132Z,8.90
2018-06-23T11:06:28.191Z,7.20
2018-06-23T11:07:28.389Z,7.60
2018-06-23T11:08:28.489Z,8.90
2018-06-23T11:09:28.660Z,6.90
2018-06-23T11:10:28.834Z,7.80
2018-06-23T11:11:29.000Z,15.50
2018-06-23T11:12:29.173Z,8.00
2018-06-23T11:13:29.351Z,8.20
2018-06-23T11:19:19.847Z,23.70
2018-06-23T11:20:19.977Z,12.10
2018-06-23T11:21:20.177Z,14.20
2018-06-23T11:22:23.871Z,7.10
2018-06-23T11:23:20.537Z,6.00
2018-06-23T11:24:20.784Z,4.80
2018-06-23T11:25:28.333Z,5.40
2018-06-23T11:26:20.997Z,4.90
2018-06-23T11:27:21.162Z,6.10
2018-06-23T11:28:21.953Z,5.50
2018-06-23T11:29:22.392Z,4.30
2018-06-23T11:30:29.592Z,6.40
2018-06-23T11:31:21.795Z,3.70
2018-06-23T11:32:22.002Z,4.30
2018-06-23T11:33:22.161Z,6.70
2018-06-23T11:34:22.332Z,4.10
2018-06-23T11:35:22.557Z,5.50
2018-06-23T11:36:22.693Z,8.40
2018-06-23T11:37:22.858Z,5.00
2018-06-23T11:38:23.031Z,3.60
2018-06-23T11:39:23.197Z,6.40
2018-06-23T11:40:23.363Z,4.50
2018-06-23T11:41:23.627Z,4.70
2018-06-23T11:42:23.702Z,4.00
2018-06-23T11:43:23.876Z,5.90
2018-06-23T11:44:24.057Z,5.00
2018-06-23T11:45:24.222Z,7.80
2018-06-23T11:48:06.488Z,5.60
2018-06-23T11:49:06.721Z,5.10
2018-06-23T11:50:07.548Z,4.60
2018-06-23T11:51:06.963Z,6.30
2018-06-23T11:52:07.143Z,5.00
2018-06-23T11:53:07.364Z,5.90
2018-06-23T11:54:14.945Z,4.50
2018-06-23T11:55:07.606Z,4.40
2018-06-23T11:56:07.840Z,5.40
2018-06-23T11:57:07.883Z,4.10
2018-06-23T11:58:08.069Z,6.50
2018-06-23T11:59:08.218Z,6.30
2018-06-23T12:00:16.458Z,4.50
2018-06-23T12:01:08.492Z,5.90
2018-06-23T12:02:08.676Z,4.50
2018-06-23T12:03:08.827Z,4.90
2018-06-23T12:04:08.987Z,8.90
2018-06-23T12:05:09.198Z,4.20
2018-06-23T12:06:09.372Z,5.30
2018-06-23T12:07:09.538Z,5.50
2018-06-23T12:08:09.721Z,4.60
2018-06-23T12:09:09.903Z,6.10
2018-06-23T12:10:11.511Z,3.60
2018-06-23T12:11:10.230Z,5.80
2018-06-23T12:12:10.392Z,5.20
2018-06-23T12:13:10.549Z,5.70
2018-06-23T12:14:10.754Z,5.10
2018-06-23T12:16:54.079Z,5.70
2018-06-23T12:17:53.226Z,6.70
2018-06-23T12:18:53.427Z,5.50
2018-06-23T12:19:53.547Z,6.50
2018-06-23T12:20:53.730Z,6.50
2018-06-23T12:21:53.887Z,6.10
2018-06-23T12:22:54.065Z,5.50
2018-06-23T12:23:54.266Z,6.00
2018-06-23T12:24:54.498Z,5.40
2018-06-23T12:25:54.692Z,5.70
2018-06-23T12:26:54.880Z,6.10
2018-06-23T12:27:55.067Z,7.10
2018-06-23T12:28:55.299Z,5.90
2018-06-23T12:29:55.444Z,6.10
2018-06-23T12:31:05.786Z,7.70
2018-06-23T12:31:57.809Z,6.20
2018-06-23T12:33:03.441Z,8.60
2018-06-23T12:33:56.000Z,6.30
2018-06-23T12:34:56.159Z,5.30
2018-06-23T12:35:56.318Z,7.60
2018-06-23T12:36:56.564Z,6.80
2018-06-23T12:37:56.676Z,5.90
2018-06-23T12:38:56.846Z,7.40
2018-06-23T12:39:57.595Z,5.60
2018-06-23T12:40:57.166Z,7.30
2018-06-23T12:41:57.354Z,5.40
2018-06-23T12:42:57.523Z,3.90
2018-06-23T12:43:57.690Z,6.30
2018-06-23T12:44:57.864Z,5.20
2018-06-23T12:45:58.022Z,5.20
2018-06-23T12:46:58.237Z,4.70
2018-06-23T12:49:40.514Z,8.10
2018-06-23T12:50:40.678Z,5.60
2018-06-23T12:51:40.846Z,6.70
2018-06-23T12:52:41.091Z,6.00
2018-06-23T12:53:41.220Z,5.80
2018-06-23T12:54:41.387Z,4.80
2018-06-23T12:55:41.580Z,6.50
2018-06-23T12:56:41.747Z,6.20
2018-06-23T12:57:41.944Z,10.30
2018-06-23T12:58:42.168Z,5.20
2018-06-23T12:59:50.286Z,7.60
2018-06-23T13:00:42.455Z,8.70
2018-06-23T13:01:42.610Z,7.10
2018-06-23T13:02:42.792Z,6.40
2018-06-23T13:03:42.958Z,7.50
2018-06-23T13:04:43.198Z,5.90
2018-06-23T13:05:43.342Z,5.60
2018-06-23T13:06:43.392Z,5.80
2018-06-23T13:07:44.526Z,8.10
2018-06-23T13:08:43.746Z,6.20
2018-06-23T13:09:43.883Z,10.10
2018-06-23T13:10:44.054Z,7.20
2018-06-23T13:11:46.081Z,9.30
2018-06-23T13:12:44.379Z,7.80
2018-06-23T13:13:44.549Z,9.20
2018-06-23T13:14:44.708Z,8.30
2018-06-23T13:17:27.017Z,7.90
2018-06-23T13:18:27.179Z,7.60
2018-06-23T13:19:27.357Z,8.30
2018-06-23T13:20:27.525Z,8.30
2018-06-23T13:21:27.700Z,8.00
2018-06-23T13:22:27.939Z,8.10
2018-06-23T13:23:28.028Z,8.50
2018-06-23T13:24:28.316Z,6.80
2018-06-23T13:25:28.330Z,9.10
2018-06-23T13:26:28.501Z,9.90
2018-06-23T13:27:28.665Z,6.60
2018-06-23T13:28:37.040Z,9.50
2018-06-23T13:29:29.047Z,7.00
2018-06-23T13:30:29.220Z,6.00
2018-06-23T13:31:36.871Z,8.10
2018-06-23T13:32:29.568Z,8.80
2018-06-23T13:33:29.703Z,8.80
2018-06-23T13:34:29.866Z,9.00
2018-06-23T13:35:30.034Z,9.40
2018-06-23T13:36:30.200Z,6.00
2018-06-23T13:37:30.367Z,7.20
2018-06-23T13:38:30.533Z,7.70
2018-06-23T13:39:30.749Z,7.00
2018-06-23T13:40:30.862Z,9.00
2018-06-23T13:41:31.029Z,6.90
2018-06-23T13:42:31.271Z,7.40
2018-06-23T13:43:31.386Z,7.40
2018-06-23T13:44:31.557Z,5.70
2018-06-23T13:45:31.735Z,5.80
2018-06-23T13:48:14.023Z,8.80
2018-06-23T13:49:14.196Z,8.10
2018-06-23T13:50:14.389Z,6.00
2018-06-23T13:51:14.596Z,8.80
2018-06-23T13:52:14.808Z,6.20
2018-06-23T13:53:15.056Z,7.70
2018-06-23T13:54:15.225Z,8.60
2018-06-23T13:55:15.266Z,5.70
2018-06-23T13:56:23.108Z,6.70
2018-06-23T13:57:15.603Z,6.80
2018-06-23T13:58:15.754Z,7.00
2018-06-23T13:59:18.563Z,7.60
2018-06-23T14:00:16.101Z,9.10
2018-06-23T14:01:16.281Z,7.50
2018-06-23T14:02:16.445Z,8.50
2018-06-23T14:03:16.629Z,5.70
2018-06-23T14:04:16.817Z,6.80
2018-06-23T14:05:16.980Z,6.30
2018-06-23T14:07:59.467Z,5.70
2018-06-23T14:09:01.311Z,6.10
2018-06-23T14:09:59.621Z,6.30
2018-06-23T14:10:59.784Z,7.40
2018-06-23T14:11:59.947Z,7.30
2018-06-23T14:13:01.809Z,5.70
2018-06-23T14:14:00.412Z,6.00
2018-06-23T14:15:00.533Z,5.40
2018-06-23T14:16:02.295Z,8.30
2018-06-23T14:17:00.827Z,6.60
2018-06-23T14:18:00.994Z,6.30
2018-06-23T14:19:01.162Z,6.80
2018-06-23T14:20:01.334Z,6.10
2018-06-23T14:21:04.268Z,7.00
2018-06-23T14:22:01.699Z,7.60
2018-06-23T14:24:34.025Z,7.70
2018-06-23T14:25:34.195Z,4.70
2018-06-23T14:26:34.364Z,5.70
2018-06-23T14:27:34.555Z,5.40
2018-06-23T14:28:34.747Z,6.40
2018-06-23T14:29:35.566Z,6.70
2018-06-23T14:30:34.958Z,4.70
2018-06-23T14:31:35.160Z,7.30
2018-06-23T14:32:35.419Z,7.80
2018-06-23T14:33:35.539Z,8.10
2018-06-23T14:34:35.698Z,5.80
2018-06-23T14:35:35.889Z,7.10
2018-06-23T14:36:36.053Z,7.10
2018-06-23T14:37:36.223Z,5.80
2018-06-23T14:38:36.452Z,8.80
2018-06-23T14:39:44.526Z,4.90